Time;durP1;ratioP1;P1;durP2;ratioP2;P2;SDS_P1;SDS_P2;PMS_P1;PMS_P2;Temp;Humidity;BMP_temperature;BMP_pressure;BME280_temperature;BME280_humidity;BME280_pressure;Samples;Min_cycle;Max_cycle;Signal;HPM_P1;HPM_P2
2021/05/31 00:00:15;;;;;;;;;;;;;;;10.24;68.46;96479.31;1278797;23;19904;-71
2021/05/31 00:00:45;;;;;;;;;;;;;;;10.21;68.55;96479.78;1279197;23;19981;-71
2021/05/31 00:01:16;;;;;;;;;;;;;;;10.24;68.19;96483.84;1279263;23;19908;-71
2021/05/31 00:01:46;;;;;;;;;;;;;;;10.26;68.33;96481.72;1279166;23;20310;-71
2021/05/31 00:02:16;;;;;;;;;;;;;;;10.26;68.43;96477.19;1279075;23;20392;-72
2021/05/31 00:02:47;;;;;;;;;;;;;;;10.25;67.98;96475.56;1279107;23;19900;-71
2021/05/31 00:03:17;;;;;;;;;;;;;;;10.19;68.46;96473.09;1279163;23;19904;-72
2021/05/31 00:03:47;;;;;;;;;;;;;;;10.23;68.35;96482.19;1279082;23;20311;-72
2021/05/31 00:04:17;;;;;;;;;;;;;;;10.25;68.20;96483.59;1278751;23;19904;-71
2021/05/31 00:04:48;;;;;;;;;;;;;;;10.24;67.89;96478.50;1278768;23;19923;-71
2021/05/31 00:05:22;;;;;;;;;;;;;;;10.25;67.84;96480.91;1278827;23;19960;-72
2021/05/31 00:05:52;;;;;;;;;;;;;;;10.22;68.19;96484.06;1278848;23;20306;-72
2021/05/31 00:06:23;;;;;;;;;;;;;;;10.18;67.93;96482.16;1279157;23;19910;-71
2021/05/31 00:06:56;;;;;;;;;;;;;;;10.20;68.42;96485.38;1279119;23;19901;-71
2021/05/31 00:07:26;;;;;;;;;;;;;;;10.18;68.16;96472.28;1279090;23;19904;-72
2021/05/31 00:07:56;;;;;;;;;;;;;;;10.16;68.13;96482.41;1279111;23;19904;-72
2021/05/31 00:08:26;;;;;;;;;;;;;;;10.17;68.17;96476.00;1279134;23;19905;-72
2021/05/31 00:08:57;;;;;;;;;;;;;;;10.16;68.22;96477.88;1278592;23;20230;-72
2021/05/31 00:09:27;;;;;;;;;;;;;;;10.12;68.46;96478.63;1278706;23;19911;-71
2021/05/31 00:09:57;;;;;;;;;;;;;;;10.12;68.13;96476.78;1272581;23;19915;-72
2021/05/31 00:10:28;;;;;;;;;;;;;;;10.11;68.49;96488.50;1272550;23;19897;-71
2021/05/31 00:10:58;;;;;;;;;;;;;;;10.06;68.58;96477.78;1278803;23;19912;-71
2021/05/31 00:11:28;;;;;;;;;;;;;;;10.05;68.60;96478.84;1278838;23;19919;-71
2021/05/31 00:11:59;;;;;;;;;;;;;;;10.02;68.51;96490.03;1279119;23;19915;-71
2021/05/31 00:12:29;;;;;;;;;;;;;;;9.98;68.73;96477.44;1278933;23;19901;-71
2021/05/31 00:12:59;;;;;;;;;;;;;;;9.96;68.81;96484.91;1278621;23;19915;-72
2021/05/31 00:13:29;;;;;;;;;;;;;;;9.99;68.56;96481.75;1278741;23;19896;-72
2021/05/31 00:14:00;;;;;;;;;;;;;;;9.99;69.07;96481.75;1278725;23;19908;-72
2021/05/31 00:14:30;;;;;;;;;;;;;;;9.93;69.37;96475.56;1278755;23;19896;-71
2021/05/31 00:15:00;;;;;;;;;;;;;;;9.94;69.19;96479.84;1272506;23;19995;-72
2021/05/31 00:15:31;;;;;;;;;;;;;;;9.97;68.88;96475.84;1272556;23;19897;-71
2021/05/31 00:16:01;;;;;;;;;;;;;;;9.95;68.85;96486.78;1272546;23;20279;-72
2021/05/31 00:16:31;;;;;;;;;;;;;;;9.91;68.92;96485.66;1278673;23;19919;-72
2021/05/31 00:17:02;;;;;;;;;;;;;;;9.92;68.87;96481.13;1279021;23;19982;-72
2021/05/31 00:17:32;;;;;;;;;;;;;;;9.90;69.70;96481.41;1279087;23;19896;-72
2021/05/31 00:18:02;;;;;;;;;;;;;;;9.92;69.38;96473.13;1279001;23;19936;-71
2021/05/31 00:18:33;;;;;;;;;;;;;;;9.95;69.25;96475.28;1279068;23;20281;-72
2021/05/31 00:19:03;;;;;;;;;;;;;;;9.94;69.33;96474.50;1279039;23;19915;-72
2021/05/31 00:19:34;;;;;;;;;;;;;;;9.92;69.68;96473.13;1279092;23;19896;-72
2021/05/31 00:20:08;;;;;;;;;;;;;;;9.91;69.62;96472.31;1279038;23;19954;-72
2021/05/31 00:20:38;;;;;;;;;;;;;;;9.88;69.34;96473.66;1279134;23;19896;-71
2021/05/31 00:21:08;;;;;;;;;;;;;;;9.89;69.31;96482.47;1279060;23;19986;-71
2021/05/31 00:21:39;;;;;;;;;;;;;;;9.88;69.86;96470.97;1279023;23;20298;-71
2021/05/31 00:22:09;;;;;;;;;;;;;;;9.83;69.96;96462.91;1278619;23;19908;-71
2021/05/31 00:22:39;;;;;;;;;;;;;;;9.84;69.82;96467.19;1278762;23;20329;-72
2021/05/31 00:23:10;;;;;;;;;;;;;;;9.83;69.55;96478.94;1278667;23;20396;-72
2021/05/31 00:23:40;;;;;;;;;;;;;;;9.84;70.03;96472.53;1278684;23;20326;-71
2021/05/31 00:24:10;;;;;;;;;;;;;;;9.83;69.87;96478.94;1279045;23;19943;-71
2021/05/31 00:24:41;;;;;;;;;;;;;;;9.80;70.17;96478.63;1279099;23;19896;-75
2021/05/31 00:25:11;;;;;;;;;;;;;;;9.70;70.38;96471.31;1279103;23;19908;-75
2021/05/31 00:25:41;;;;;;;;;;;;;;;9.67;70.10;96474.50;1279220;23;19904;-75
2021/05/31 00:26:13;;;;;;;;;;;;;;;9.69;70.81;96472.41;1279104;23;20326;-75
2021/05/31 00:26:44;;;;;;;;;;;;;;;9.64;70.95;96473.16;1279165;23;19896;-75
2021/05/31 00:27:14;;;;;;;;;;;;;;;9.67;70.25;96463.81;1279145;23;19908;-76
2021/05/31 00:27:45;;;;;;;;;;;;;;;9.67;70.44;96471.81;1278916;23;19947;-76
2021/05/31 00:28:15;;;;;;;;;;;;;;;9.67;70.91;96477.16;1279139;23;19908;-75
2021/05/31 00:28:45;;;;;;;;;;;;;;;9.63;70.70;96476.06;1279163;23;19946;-75
2021/05/31 00:29:16;;;;;;;;;;;;;;;9.64;71.33;96469.69;1279078;23;19912;-75
2021/05/31 00:29:46;;;;;;;;;;;;;;;9.65;70.31;96481.94;1279095;23;19925;-75
2021/05/31 00:30:17;;;;;;;;;;;;;;;9.65;70.89;96476.63;1279002;23;19939;-75
2021/05/31 00:30:47;;;;;;;;;;;;;;;9.67;71.05;96479.81;1279199;23;19947;-75
2021/05/31 00:31:17;;;;;;;;;;;;;;;9.66;71.16;96474.75;1279152;23;19908;-75
2021/05/31 00:31:48;;;;;;;;;;;;;;;9.59;71.31;96472.28;1279109;23;19900;-75
2021/05/31 00:32:18;;;;;;;;;;;;;;;9.62;71.67;96474.44;1279158;23;19909;-75
2021/05/31 00:32:52;;;;;;;;;;;;;;;9.64;71.34;96475.81;1278765;23;19904;-75
2021/05/31 00:33:22;;;;;;;;;;;;;;;9.61;71.23;96473.63;1278826;23;20233;-75
2021/05/31 00:33:52;;;;;;;;;;;;;;;9.64;71.12;96475.00;1278781;23;19911;-75
2021/05/31 00:34:22;;;;;;;;;;;;;;;9.63;71.47;96476.06;1278816;23;19912;-75
2021/05/31 00:34:53;;;;;;;;;;;;;;;9.65;71.48;96473.94;1278822;23;20318;-75
2021/05/31 00:35:24;;;;;;;;;;;;;;;9.68;71.41;96467.31;1278755;23;19904;-75
2021/05/31 00:35:54;;;;;;;;;;;;;;;9.68;71.49;96476.13;1279105;23;19904;-75
2021/05/31 00:36:24;;;;;;;;;;;;;;;9.67;71.24;96479.81;1278680;23;19911;-75
2021/05/31 00:36:55;;;;;;;;;;;;;;;9.69;71.16;96476.94;1278861;23;19904;-75
2021/05/31 00:37:25;;;;;;;;;;;;;;;9.67;71.20;96471.81;1278734;23;19904;-75
2021/05/31 00:37:55;;;;;;;;;;;;;;;9.66;71.43;96470.22;1278431;23;19911;-76
2021/05/31 00:38:26;;;;;;;;;;;;;;;9.68;71.59;96470.00;1279170;23;19938;-75
2021/05/31 00:38:56;;;;;;;;;;;;;;;9.65;71.58;96473.94;1278742;23;19942;-75
2021/05/31 00:39:26;;;;;;;;;;;;;;;9.64;71.64;96469.69;1278844;23;19927;-75
2021/05/31 00:39:56;;;;;;;;;;;;;;;9.64;72.00;96467.81;1278602;23;19967;-76
2021/05/31 00:40:27;;;;;;;;;;;;;;;9.59;72.08;96474.97;1278649;23;19904;-75
2021/05/31 00:40:57;;;;;;;;;;;;;;;9.60;71.72;96473.91;1278741;23;20397;-75
2021/05/31 00:41:28;;;;;;;;;;;;;;;9.63;72.16;96470.75;1278753;23;19986;-76
2021/05/31 00:41:58;;;;;;;;;;;;;;;9.59;72.36;96469.63;1278770;23;20364;-75
2021/05/31 00:42:29;;;;;;;;;;;;;;;9.59;72.30;96474.97;1279096;23;19939;-75
2021/05/31 00:42:59;;;;;;;;;;;;;;;9.54;72.76;96473.03;1278976;23;19979;-75
2021/05/31 00:43:33;;;;;;;;;;;;;;;9.50;73.07;96473.78;1278825;23;19904;-75
2021/05/31 00:44:04;;;;;;;;;;;;;;;9.49;72.43;96478.31;1279040;23;19911;-76
2021/05/31 00:44:34;;;;;;;;;;;;;;;9.52;72.83;96469.00;1272506;23;19971;-75
2021/05/31 00:45:05;;;;;;;;;;;;;;;9.52;73.10;96463.66;1272480;23;19905;-75
2021/05/31 00:45:35;;;;;;;;;;;;;;;9.56;72.46;96467.44;1272704;23;19990;-76
2021/05/31 00:46:06;;;;;;;;;;;;;;;9.55;73.06;96465.84;1272653;23;19928;-75
2021/05/31 00:46:36;;;;;;;;;;;;;;;9.53;73.14;96470.63;1278755;23;19904;-75
2021/05/31 00:47:07;;;;;;;;;;;;;;;9.55;72.97;96463.16;1278724;23;19947;-75
2021/05/31 00:47:37;;;;;;;;;;;;;;;9.55;72.79;96460.50;1278753;23;19911;-75
2021/05/31 00:48:07;;;;;;;;;;;;;;;9.55;73.01;96460.50;1278662;23;19955;-75
2021/05/31 00:48:38;;;;;;;;;;;;;;;9.56;72.59;96462.09;1279056;23;19905;-76
2021/05/31 00:49:08;;;;;;;;;;;;;;;9.56;73.29;96462.09;1279057;23;20311;-75
2021/05/31 00:49:38;;;;;;;;;;;;;;;9.50;72.70;96461.25;1278506;23;20258;-75
2021/05/31 00:50:09;;;;;;;;;;;;;;;9.47;73.15;96460.94;1278657;23;19911;-76
2021/05/31 00:50:40;;;;;;;;;;;;;;;9.52;73.39;96461.00;1278813;23;19911;-75
2021/05/31 00:51:11;;;;;;;;;;;;;;;9.51;73.46;96457.53;1278728;23;20422;-75
2021/05/31 00:51:41;;;;;;;;;;;;;;;9.51;73.37;96462.06;1279158;23;19996;-75
2021/05/31 00:52:11;;;;;;;;;;;;;;;9.47;73.49;96456.44;1279068;23;20238;-75
2021/05/31 00:52:42;;;;;;;;;;;;;;;9.51;73.38;96456.72;1278971;23;20045;-75
2021/05/31 00:53:12;;;;;;;;;;;;;;;9.51;73.58;96454.84;1278279;23;19973;-76
2021/05/31 00:53:42;;;;;;;;;;;;;;;9.42;73.23;96453.72;1278740;23;19908;-76
2021/05/31 00:54:12;;;;;;;;;;;;;;;9.46;73.41;96454.81;1272619;23;19912;-75
2021/05/31 00:54:43;;;;;;;;;;;;;;;9.48;73.45;96451.91;1272564;23;19904;-75
2021/05/31 00:55:14;;;;;;;;;;;;;;;9.47;73.46;96456.44;1278761;23;19938;-75
2021/05/31 00:55:44;;;;;;;;;;;;;;;9.43;73.31;96459.84;1278766;23;19904;-75
2021/05/31 00:56:14;;;;;;;;;;;;;;;9.37;73.51;96456.34;1279037;23;19904;-75
2021/05/31 00:56:45;;;;;;;;;;;;;;;9.38;74.28;96461.41;1279062;23;20325;-75
2021/05/31 00:57:15;;;;;;;;;;;;;;;9.42;73.90;96458.22;1279131;23;19904;-75
2021/05/31 00:57:45;;;;;;;;;;;;;;;9.38;74.21;96460.59;1279099;23;20212;-75
2021/05/31 00:58:16;;;;;;;;;;;;;;;9.34;74.47;96457.63;1278691;23;19904;-74
2021/05/31 00:58:46;;;;;;;;;;;;;;;9.35;74.29;96453.88;1278683;23;19904;-75
2021/05/31 00:59:16;;;;;;;;;;;;;;;9.38;74.55;96453.41;1272565;23;19935;-76
2021/05/31 00:59:47;;;;;;;;;;;;;;;9.41;74.01;96449.41;1272532;23;19904;-75
2021/05/31 01:00:17;;;;;;;;;;;;;;;9.36;74.56;96460.84;1278690;23;19911;-75
2021/05/31 01:00:47;;;;;;;;;;;;;;;9.40;74.83;96457.69;1278568;23;19934;-75
2021/05/31 01:01:20;;;;;;;;;;;;;;;9.44;74.53;96456.94;1278569;23;19904;-75
2021/05/31 01:01:50;;;;;;;;;;;;;;;9.38;74.19;96448.06;1278638;23;19904;-76
2021/05/31 01:02:20;;;;;;;;;;;;;;;9.41;74.40;96457.41;1278730;23;19924;-75
2021/05/31 01:02:51;;;;;;;;;;;;;;;9.34;75.02;96446.16;1278702;23;19910;-75
2021/05/31 01:03:21;;;;;;;;;;;;;;;9.36;74.75;96452.84;1279033;23;20322;-75
2021/05/31 01:03:51;;;;;;;;;;;;;;;9.39;74.61;96456.88;1279051;23;19904;-76
2021/05/31 01:04:22;;;;;;;;;;;;;;;9.36;74.51;96460.03;1278976;23;19910;-75
2021/05/31 01:04:52;;;;;;;;;;;;;;;9.33;74.58;96449.88;1278986;23;19904;-75
2021/05/31 01:05:23;;;;;;;;;;;;;;;9.33;74.61;96455.22;1278792;23;19950;-75
2021/05/31 01:05:55;;;;;;;;;;;;;;;9.28;75.11;96447.97;1279073;23;19904;-75
2021/05/31 01:06:25;;;;;;;;;;;;;;;9.31;75.33;96451.97;1279118;23;19911;-75
2021/05/31 01:07:13;;;;;;;;;;;;;;;9.31;75.37;96450.09;1279072;23;19904;-75
2021/05/31 01:07:45;;;;;;;;;;;;;;;9.25;75.50;96448.44;1279053;23;19923;-75
2021/05/31 01:08:20;;;;;;;;;;;;;;;9.26;75.58;96454.59;1278746;23;19908;-76
2021/05/31 01:08:53;;;;;;;;;;;;;;;9.29;75.41;96449.56;1278757;23;19908;-75
2021/05/31 01:09:32;;;;;;;;;;;;;;;9.29;75.53;96451.44;1278773;23;19934;-75
2021/05/31 01:10:05;;;;;;;;;;;;;;;9.34;75.44;96452.28;1278753;23;19912;-75
2021/05/31 01:10:48;;;;;;;;;;;;;;;9.28;74.93;96452.50;1278635;23;19908;-75
2021/05/31 01:11:37;;;;;;;;;;;;;;;9.25;75.24;96448.44;1273551;23;19959;-75
2021/05/31 01:12:13;;;;;;;;;;;;;;;9.24;75.33;96451.38;1278639;23;19995;-75
2021/05/31 01:13:00;;;;;;;;;;;;;;;9.22;75.94;96453.50;1278711;23;19970;-76
2021/05/31 01:13:40;;;;;;;;;;;;;;;9.24;75.82;96456.72;1278574;23;19908;-75
2021/05/31 01:14:16;;;;;;;;;;;;;;;9.20;75.92;96452.91;1278705;23;19904;-75
2021/05/31 01:14:49;;;;;;;;;;;;;;;9.20;76.27;96450.25;1278745;23;19909;-75
2021/05/31 01:15:30;;;;;;;;;;;;;;;9.20;75.96;96451.06;1272282;23;19905;-75
2021/05/31 01:16:07;;;;;;;;;;;;;;;9.14;76.43;96456.59;1272506;23;19904;-75
2021/05/31 01:16:44;;;;;;;;;;;;;;;9.16;76.64;96457.94;1266452;23;19987;-76
2021/05/31 01:17:44;;;;;;;;;;;;;;;9.17;76.42;96458.78;1270110;23;19905;-75
2021/05/31 01:18:21;;;;;;;;;;;;;;;9.09;76.46;96458.13;1249509;23;20348;-75
2021/05/31 01:18:52;;;;;;;;;;;;;;;9.11;76.53;96457.91;1278667;23;19966;-75
2021/05/31 01:19:31;;;;;;;;;;;;;;;9.13;76.27;96449.66;1278668;23;19965;-75
2021/05/31 01:20:03;;;;;;;;;;;;;;;9.19;76.19;96457.44;1272638;23;19931;-76
2021/05/31 01:20:35;;;;;;;;;;;;;;;9.20;76.69;96459.06;1274861;23;19905;-75
2021/05/31 01:21:24;;;;;;;;;;;;;;;9.19;76.19;96454.78;1278654;23;19904;-76
2021/05/31 01:22:10;;;;;;;;;;;;;;;9.17;77.08;96456.09;1278680;23;19909;-75
2021/05/31 01:22:40;;;;;;;;;;;;;;;9.15;76.40;96451.00;1278705;23;19919;-76
2021/05/31 01:23:11;;;;;;;;;;;;;;;9.10;76.71;96450.94;1278683;23;20365;-76
2021/05/31 01:23:41;;;;;;;;;;;;;;;9.13;77.18;96447.78;1275367;23;19908;-75
2021/05/31 01:24:27;;;;;;;;;;;;;;;9.07;76.77;96446.94;1272767;23;19904;-75
2021/05/31 01:24:58;;;;;;;;;;;;;;;9.04;77.35;96454.59;1278608;23;19915;-75
2021/05/31 01:25:28;;;;;;;;;;;;;;;9.01;77.44;96452.47;1275790;23;20343;-75
2021/05/31 01:26:05;;;;;;;;;;;;;;;9.06;77.54;96452.53;1278673;23;19905;-75
2021/05/31 01:26:43;;;;;;;;;;;;;;;9.06;77.30;96447.19;1278670;23;19905;-75
2021/05/31 01:27:19;;;;;;;;;;;;;;;9.00;77.75;96450.81;1278764;23;20302;-75
2021/05/31 01:27:52;;;;;;;;;;;;;;;8.97;77.85;96449.47;1278642;23;19995;-75
2021/05/31 01:28:26;;;;;;;;;;;;;;;9.00;78.04;96448.97;1278819;23;19908;-75
2021/05/31 01:29:06;;;;;;;;;;;;;;;8.99;77.82;96449.22;1279052;23;19903;-75
2021/05/31 01:29:37;;;;;;;;;;;;;;;8.96;77.87;96445.19;1278859;23;19904;-75
2021/05/31 01:30:08;;;;;;;;;;;;;;;9.00;78.09;96446.28;1272402;23;19907;-76
2021/05/31 01:30:40;;;;;;;;;;;;;;;8.94;78.12;96451.81;1272473;23;19920;-75
2021/05/31 01:31:11;;;;;;;;;;;;;;;8.90;77.85;96446.16;1272529;23;19928;-75
2021/05/31 01:31:54;;;;;;;;;;;;;;;8.93;78.36;96453.69;1267726;23;19909;-75
2021/05/31 01:32:35;;;;;;;;;;;;;;;8.90;78.32;96453.34;1278675;23;19901;-75
2021/05/31 01:33:05;;;;;;;;;;;;;;;8.93;77.71;96444.88;1278678;23;20212;-75
2021/05/31 01:33:35;;;;;;;;;;;;;;;8.95;78.40;96442.75;1271006;23;19897;-76
2021/05/31 01:34:06;;;;;;;;;;;;;;;8.92;78.28;96445.94;1272520;23;19927;-75
2021/05/31 01:34:37;;;;;;;;;;;;;;;8.90;78.11;96456.03;1272374;23;20339;-75
2021/05/31 01:35:09;;;;;;;;;;;;;;;8.91;78.04;96441.66;1266275;23;20216;-75
2021/05/31 01:35:39;;;;;;;;;;;;;;;8.82;78.54;96451.94;1278619;23;19897;-75
2021/05/31 01:36:10;;;;;;;;;;;;;;;8.83;79.09;96445.56;1272437;23;19900;-75
2021/05/31 01:36:43;;;;;;;;;;;;;;;8.82;78.42;96447.41;1272914;23;20254;-75
2021/05/31 01:37:15;;;;;;;;;;;;;;;8.83;78.98;96446.34;1272557;23;19908;-75
2021/05/31 01:37:45;;;;;;;;;;;;;;;8.89;78.63;96447.22;1272378;23;19904;-75
2021/05/31 01:38:18;;;;;;;;;;;;;;;8.86;79.04;96447.75;1272511;23;20262;-75
2021/05/31 01:38:49;;;;;;;;;;;;;;;8.88;78.99;96445.63;1266151;23;20350;-75
2021/05/31 01:39:19;;;;;;;;;;;;;;;8.88;78.65;96439.50;1261063;23;19902;-75
2021/05/31 01:39:51;;;;;;;;;;;;;;;8.90;78.48;96446.16;1267273;23;19940;-75
2021/05/31 01:40:22;;;;;;;;;;;;;;;8.90;78.46;96448.03;1260546;23;19905;-75
2021/05/31 01:40:52;;;;;;;;;;;;;;;8.90;78.31;96440.03;1260764;23;19905;-75
2021/05/31 01:41:23;;;;;;;;;;;;;;;8.85;78.37;96441.59;1266436;23;19901;-75
2021/05/31 01:41:53;;;;;;;;;;;;;;;8.85;79.06;96443.44;1266988;23;19905;-75
2021/05/31 01:42:24;;;;;;;;;;;;;;;8.84;78.53;96433.84;1278621;23;19943;-75
2021/05/31 01:42:56;;;;;;;;;;;;;;;8.82;78.95;96444.75;1278579;23;20338;-75
2021/05/31 01:43:26;;;;;;;;;;;;;;;8.88;79.19;96436.81;1278701;23;19951;-75
2021/05/31 01:43:56;;;;;;;;;;;;;;;8.89;78.64;96446.41;1278651;23;20301;-75
2021/05/31 01:44:27;;;;;;;;;;;;;;;8.88;78.33;96448.28;1278612;23;19901;-75
2021/05/31 01:44:57;;;;;;;;;;;;;;;8.91;78.72;96439.81;1272209;23;20281;-75
2021/05/31 01:45:28;;;;;;;;;;;;;;;8.90;78.20;96437.38;1272681;23;19901;-75
2021/05/31 01:46:00;;;;;;;;;;;;;;;8.82;79.15;96442.09;1272891;23;19911;-75
2021/05/31 01:46:30;;;;;;;;;;;;;;;8.80;78.94;96438.88;1267914;23;19992;-75
2021/05/31 01:47:00;;;;;;;;;;;;;;;8.83;78.68;96441.03;1279161;23;19906;-75
2021/05/31 01:47:31;;;;;;;;;;;;;;;8.84;78.61;96434.63;1273161;23;20231;-75
2021/05/31 01:48:01;;;;;;;;;;;;;;;8.80;79.41;96438.88;1273940;23;19900;-75
2021/05/31 01:48:32;;;;;;;;;;;;;;;8.81;79.05;96437.00;1273388;23;19904;-76
2021/05/31 01:49:02;;;;;;;;;;;;;;;8.85;79.23;96443.44;1273267;23;19951;-75
2021/05/31 01:49:32;;;;;;;;;;;;;;;8.88;78.48;96437.63;1273219;23;19947;-75
2021/05/31 01:50:03;;;;;;;;;;;;;;;8.89;78.90;96439.22;1273369;23;19939;-75
2021/05/31 01:50:33;;;;;;;;;;;;;;;8.91;78.52;96437.13;1279299;23;19901;-75
2021/05/31 01:51:03;;;;;;;;;;;;;;;8.94;78.56;96443.81;1273286;23;19901;-76
2021/05/31 01:51:34;;;;;;;;;;;;;;;8.95;78.67;96432.91;1273274;23;19900;-75
2021/05/31 01:52:05;;;;;;;;;;;;;;;9.00;78.17;96435.63;1279353;23;20030;-75
2021/05/31 01:52:35;;;;;;;;;;;;;;;8.98;78.31;96436.94;1279111;23;20326;-75
2021/05/31 01:53:06;;;;;;;;;;;;;;;9.03;78.53;96434.34;1273049;23;20331;-75
2021/05/31 01:53:36;;;;;;;;;;;;;;;9.04;78.14;96438.63;1273203;23;19904;-75
2021/05/31 01:54:07;;;;;;;;;;;;;;;9.02;78.66;96432.72;1260977;23;19905;-76
2021/05/31 01:54:37;;;;;;;;;;;;;;;8.97;78.49;96430.81;1254980;23;20368;-75
2021/05/31 01:55:08;;;;;;;;;;;;;;;8.97;78.86;96438.81;1261018;23;20320;-75
2021/05/31 01:55:38;;;;;;;;;;;;;;;8.99;78.21;96439.34;1261362;23;19976;-76
2021/05/31 01:56:08;;;;;;;;;;;;;;;8.98;78.65;96434.28;1261096;23;19947;-76
2021/05/31 01:56:39;;;;;;;;;;;;;;;8.96;78.92;96441.72;1267068;23;19924;-75
2021/05/31 01:57:09;;;;;;;;;;;;;;;8.99;78.98;96435.88;1267054;23;19995;-76
2021/05/31 01:57:40;;;;;;;;;;;;;;;8.97;78.96;96436.13;1267066;23;19900;-75
2021/05/31 01:58:10;;;;;;;;;;;;;;;8.97;78.58;96438.00;1279253;23;20405;-75
2021/05/31 01:58:40;;;;;;;;;;;;;;;8.94;78.84;96431.28;1279259;23;19900;-75
2021/05/31 01:59:11;;;;;;;;;;;;;;;8.92;78.69;96436.09;1279283;23;19907;-75
2021/05/31 01:59:41;;;;;;;;;;;;;;;8.91;79.31;96441.66;1273234;23;19901;-76
2021/05/31 02:00:11;;;;;;;;;;;;;;;8.90;79.25;96427.50;1279293;23;19931;-75
2021/05/31 02:00:42;;;;;;;;;;;;;;;8.92;78.90;96435.28;1279523;23;19983;-76
2021/05/31 02:01:12;;;;;;;;;;;;;;;8.95;78.64;96432.09;1279350;23;20555;-75
2021/05/31 02:01:42;;;;;;;;;;;;;;;8.96;78.85;96439.06;1279623;23;19908;-75
2021/05/31 02:02:12;;;;;;;;;;;;;;;9.00;78.83;96437.50;1279581;23;19904;-75
2021/05/31 02:02:43;;;;;;;;;;;;;;;8.99;78.87;96434.03;1279325;23;19900;-76
2021/05/31 02:03:13;;;;;;;;;;;;;;;9.03;78.92;96429.81;1279546;23;19904;-76
2021/05/31 02:03:43;;;;;;;;;;;;;;;9.07;78.63;96430.94;1279383;23;19943;-76
2021/05/31 02:04:14;;;;;;;;;;;;;;;9.06;78.83;96433.84;1279598;23;19904;-75
2021/05/31 02:04:44;;;;;;;;;;;;;;;8.98;78.51;96435.09;1279271;23;20226;-75
2021/05/31 02:05:15;;;;;;;;;;;;;;;8.99;79.00;96433.22;1279277;23;20340;-75
2021/05/31 02:05:45;;;;;;;;;;;;;;;8.95;78.93;96432.09;1279304;23;20338;-75
2021/05/31 02:06:15;;;;;;;;;;;;;;;8.95;79.24;96432.91;1279294;23;20306;-76
2021/05/31 02:06:47;;;;;;;;;;;;;;;8.96;78.88;96433.72;1279697;23;19900;-75
2021/05/31 02:07:18;;;;;;;;;;;;;;;8.97;79.08;96430.00;1279862;23;19928;-75
2021/05/31 02:07:48;;;;;;;;;;;;;;;8.90;79.32;96430.19;1279885;23;20285;-76
2021/05/31 02:08:18;;;;;;;;;;;;;;;8.93;79.20;96429.69;1279883;23;19924;-75
2021/05/31 02:08:49;;;;;;;;;;;;;;;8.94;79.08;96431.28;1279818;23;19907;-75
2021/05/31 02:09:20;;;;;;;;;;;;;;;8.96;79.29;96423.06;1279766;23;19904;-75
2021/05/31 02:09:50;;;;;;;;;;;;;;;8.92;78.79;96424.63;1279558;23;20298;-75
2021/05/31 02:10:20;;;;;;;;;;;;;;;8.87;79.40;96429.88;1279238;23;19900;-76
2021/05/31 02:10:50;;;;;;;;;;;;;;;8.84;79.58;96421.31;1279226;23;19979;-75
2021/05/31 02:11:26;;;;;;;;;;;;;;;8.79;79.96;96423.13;1279276;23;19900;-75
2021/05/31 02:12:10;;;;;;;;;;;;;;;8.80;79.91;96424.72;1279217;23;19900;-75
2021/05/31 02:12:50;;;;;;;;;;;;;;;8.77;79.47;96431.38;1260965;23;19901;-75
2021/05/31 02:13:20;;;;;;;;;;;;;;;8.68;80.45;96426.72;1261053;23;19960;-75
2021/05/31 02:13:52;;;;;;;;;;;;;;;8.74;80.21;96431.84;1265460;23;20382;-75
2021/05/31 02:14:32;;;;;;;;;;;;;;;8.74;79.66;96429.19;1261602;23;19901;-75
2021/05/31 02:15:03;;;;;;;;;;;;;;;8.78;80.04;96424.97;1267060;23;19951;-76
2021/05/31 02:15:52;;;;;;;;;;;;;;;8.75;80.37;96428.16;1267086;23;19932;-76
2021/05/31 02:16:23;;;;;;;;;;;;;;;8.77;79.87;96430.56;1278788;23;19940;-75
2021/05/31 02:16:53;;;;;;;;;;;;;;;8.77;79.75;96420.69;1279298;23;19900;-76
2021/05/31 02:17:35;;;;;;;;;;;;;;;8.82;79.85;96419.97;1277075;23;20031;-75
2021/05/31 02:18:08;;;;;;;;;;;;;;;8.81;79.70;96423.69;1279327;23;20295;-75
2021/05/31 02:18:42;;;;;;;;;;;;;;;8.79;80.21;96423.91;1279370;23;20242;-76
2021/05/31 02:19:13;;;;;;;;;;;;;;;8.75;80.09;96420.16;1279503;23;19917;-75
2021/05/31 02:19:43;;;;;;;;;;;;;;;8.79;80.10;96415.13;1279316;23;19924;-76
2021/05/31 02:20:14;;;;;;;;;;;;;;;8.77;79.54;96422.56;1279271;23;19990;-75
2021/05/31 02:20:44;;;;;;;;;;;;;;;8.75;80.59;96416.66;1279141;23;20393;-75
2021/05/31 02:21:15;;;;;;;;;;;;;;;8.78;80.04;96413.50;1279295;23;19915;-76
2021/05/31 02:21:46;;;;;;;;;;;;;;;8.76;80.08;96418.28;1279237;23;19975;-76
2021/05/31 02:22:16;;;;;;;;;;;;;;;8.73;80.47;96413.44;1273261;23;19939;-75
2021/05/31 02:22:47;;;;;;;;;;;;;;;8.74;80.08;96421.19;1279231;23;20318;-75
2021/05/31 02:23:17;;;;;;;;;;;;;;;8.74;80.25;96417.72;1279332;23;19962;-75
2021/05/31 02:23:47;;;;;;;;;;;;;;;8.75;80.08;96419.31;1279167;23;20005;-75
2021/05/31 02:24:18;;;;;;;;;;;;;;;8.66;80.36;96421.63;1279168;23;19934;-75
2021/05/31 02:24:48;;;;;;;;;;;;;;;8.67;80.67;96419.78;1273174;23;19900;-75
2021/05/31 02:25:18;;;;;;;;;;;;;;;8.68;80.69;96422.19;1273117;23;19908;-75
2021/05/31 02:25:49;;;;;;;;;;;;;;;8.71;80.66;96416.38;1267066;23;19939;-75
2021/05/31 02:26:19;;;;;;;;;;;;;;;8.73;80.48;96416.91;1273126;23;19912;-75
2021/05/31 02:26:50;;;;;;;;;;;;;;;8.74;80.21;96421.19;1273175;23;19976;-75
2021/05/31 02:27:20;;;;;;;;;;;;;;;8.70;80.21;96422.75;1279280;23;19954;-75
2021/05/31 02:27:51;;;;;;;;;;;;;;;8.75;80.67;96424.66;1279216;23;20318;-74
2021/05/31 02:28:21;;;;;;;;;;;;;;;8.71;80.25;96419.03;1279249;23;19994;-76
2021/05/31 02:28:51;;;;;;;;;;;;;;;8.71;80.58;96415.56;1279308;23;19900;-76
2021/05/31 02:29:22;;;;;;;;;;;;;;;8.73;80.33;96414.25;1279241;23;19908;-76
2021/05/31 02:29:52;;;;;;;;;;;;;;;8.77;80.59;96420.69;1279236;23;20342;-75
2021/05/31 02:30:22;;;;;;;;;;;;;;;8.77;80.54;96414.56;1279304;23;19963;-75
2021/05/31 02:30:53;;;;;;;;;;;;;;;8.72;80.82;96407.31;1279398;23;20214;-76
2021/05/31 02:31:23;;;;;;;;;;;;;;;8.71;80.53;96412.91;1279289;23;19908;-75
2021/05/31 02:31:53;;;;;;;;;;;;;;;8.69;81.06;96413.13;1279330;23;19904;-75
2021/05/31 02:32:24;;;;;;;;;;;;;;;8.71;80.16;96412.91;1279270;23;19915;-75
2021/05/31 02:32:54;;;;;;;;;;;;;;;8.73;80.44;96406.25;1273125;23;19911;-75
2021/05/31 02:33:24;;;;;;;;;;;;;;;8.69;80.41;96418.47;1273103;23;19932;-75
2021/05/31 02:33:55;;;;;;;;;;;;;;;8.70;80.34;96409.44;1279395;23;19908;-75
2021/05/31 02:34:27;;;;;;;;;;;;;;;8.63;81.25;96414.13;1279293;23;19955;-75
2021/05/31 02:34:58;;;;;;;;;;;;;;;8.71;80.68;96420.91;1279684;23;19904;-76
2021/05/31 02:35:29;;;;;;;;;;;;;;;8.72;80.71;96407.31;1279284;23;19904;-75
2021/05/31 02:35:59;;;;;;;;;;;;;;;8.75;80.81;96414.00;1279336;23;20034;-76
2021/05/31 02:36:29;;;;;;;;;;;;;;;8.76;80.78;96413.78;1279316;23;20313;-76
2021/05/31 02:37:00;;;;;;;;;;;;;;;8.81;80.51;96405.84;1279305;23;20349;-75
2021/05/31 02:37:34;;;;;;;;;;;;;;;8.82;80.68;96412.78;1279327;23;19905;-76
2021/05/31 02:38:05;;;;;;;;;;;;;;;8.85;80.55;96412.28;1273029;23;19905;-75
2021/05/31 02:38:38;;;;;;;;;;;;;;;8.86;80.52;96405.09;1274140;23;19908;-76
2021/05/31 02:39:08;;;;;;;;;;;;;;;8.83;80.20;96411.72;1279306;23;20345;-75
2021/05/31 02:39:38;;;;;;;;;;;;;;;8.84;80.51;96409.84;1273829;23;19984;-75
2021/05/31 02:40:09;;;;;;;;;;;;;;;8.85;80.63;96412.28;1279277;23;19911;-76
2021/05/31 02:40:39;;;;;;;;;;;;;;;8.88;80.00;96415.50;1273067;23;19904;-76
2021/05/31 02:41:09;;;;;;;;;;;;;;;8.84;80.33;96410.66;1266756;23;19905;-76
2021/05/31 02:41:40;;;;;;;;;;;;;;;8.81;80.25;96402.38;1273112;23;19908;-75
2021/05/31 02:42:10;;;;;;;;;;;;;;;8.77;80.43;96404.72;1273190;23;19980;-76
2021/05/31 02:42:41;;;;;;;;;;;;;;;8.76;80.41;96413.78;1279281;23;20340;-75
2021/05/31 02:43:11;;;;;;;;;;;;;;;8.73;80.63;96408.91;1279677;23;19904;-75
2021/05/31 02:43:41;;;;;;;;;;;;;;;8.71;80.66;96405.72;1279627;23;20311;-75
2021/05/31 02:44:12;;;;;;;;;;;;;;;8.71;80.83;96405.72;1279656;23;19904;-75
2021/05/31 02:44:42;;;;;;;;;;;;;;;8.63;80.24;96406.13;1279214;23;19983;-75
2021/05/31 02:45:13;;;;;;;;;;;;;;;8.56;81.15;96408.97;1279252;23;19935;-75
2021/05/31 02:45:43;;;;;;;;;;;;;;;8.58;81.44;96396.22;1279342;23;19908;-75
2021/05/31 02:46:13;;;;;;;;;;;;;;;8.60;80.99;96401.31;1279271;23;19931;-75
2021/05/31 02:46:43;;;;;;;;;;;;;;;8.59;80.79;96397.81;1279551;23;19933;-75